createdAt,value
2019-05-31T00:00:32.498Z,12.30
2019-05-31T00:03:01.892Z,12.30
2019-05-31T00:05:31.440Z,12.20
2019-05-31T00:08:03.089Z,12.20
2019-05-31T00:10:32.397Z,12.20
2019-05-31T00:13:02.421Z,12.20
2019-05-31T00:15:31.879Z,12.20
2019-05-31T00:18:02.860Z,12.10
2019-05-31T00:20:32.829Z,11.90
2019-05-31T00:23:02.233Z,11.90
2019-05-31T00:25:32.706Z,12.00
2019-05-31T00:28:02.861Z,12.00
2019-05-31T00:30:32.283Z,12.00
2019-05-31T00:33:02.552Z,12.10
2019-05-31T00:35:32.140Z,12.20
2019-05-31T00:38:04.193Z,12.20
2019-05-31T00:40:33.880Z,12.20
2019-05-31T00:43:03.577Z,12.30
2019-05-31T00:45:33.372Z,12.30
2019-05-31T00:48:04.110Z,12.30
2019-05-31T00:50:34.703Z,12.40
2019-05-31T00:53:04.289Z,12.30
2019-05-31T00:55:33.732Z,12.40
2019-05-31T00:58:04.855Z,12.40
2019-05-31T01:00:34.484Z,12.50
2019-05-31T01:03:07.054Z,12.40
2019-05-31T01:05:36.906Z,12.50
2019-05-31T01:08:12.051Z,12.40
2019-05-31T01:10:42.793Z,12.40
2019-05-31T01:13:12.228Z,12.50
2019-05-31T01:15:42.218Z,12.30
2019-05-31T01:18:12.538Z,12.30
2019-05-31T01:20:42.121Z,12.40
2019-05-31T01:23:12.940Z,12.50
2019-05-31T01:25:42.332Z,12.40
2019-05-31T01:28:12.092Z,12.40
2019-05-31T01:30:43.385Z,12.40
2019-05-31T01:33:13.314Z,12.50
2019-05-31T01:35:44.047Z,12.60
2019-05-31T01:38:13.446Z,12.60
2019-05-31T01:40:43.267Z,12.70
2019-05-31T01:43:15.663Z,12.60
2019-05-31T01:45:43.973Z,12.60
2019-05-31T01:48:13.579Z,12.50
2019-05-31T01:50:43.289Z,12.40
2019-05-31T01:53:12.720Z,12.30
2019-05-31T01:55:42.191Z,12.30
2019-05-31T01:58:13.976Z,12.20
2019-05-31T02:00:43.397Z,12.30
2019-05-31T02:03:12.887Z,12.30
2019-05-31T02:05:42.766Z,12.40
2019-05-31T02:08:12.907Z,12.40
2019-05-31T02:10:43.263Z,12.40
2019-05-31T02:13:13.315Z,12.50
2019-05-31T02:15:42.816Z,12.40
2019-05-31T02:18:12.839Z,12.40
2019-05-31T02:20:42.625Z,12.40
2019-05-31T02:23:12.058Z,12.40
2019-05-31T02:25:42.661Z,12.40
2019-05-31T02:28:13.380Z,12.40
2019-05-31T02:30:43.005Z,12.40
2019-05-31T02:33:14.991Z,12.50
2019-05-31T02:35:44.351Z,12.60
2019-05-31T02:38:14.263Z,12.50
2019-05-31T02:40:44.854Z,12.50
2019-05-31T02:43:16.645Z,12.60
2019-05-31T02:45:48.203Z,12.70
2019-05-31T02:48:19.054Z,12.80
2019-05-31T02:50:49.585Z,12.80
2019-05-31T02:53:19.352Z,12.90
2019-05-31T02:55:52.236Z,12.90
2019-05-31T02:58:23.519Z,12.90
2019-05-31T03:00:53.192Z,12.90
2019-05-31T03:03:23.156Z,13.00
2019-05-31T03:05:55.786Z,12.90
2019-05-31T03:08:26.846Z,12.90
2019-05-31T03:10:56.262Z,13.00
2019-05-31T03:13:25.696Z,13.00
2019-05-31T03:16:07.396Z,13.00
2019-05-31T03:18:30.111Z,12.90
2019-05-31T03:21:00.027Z,13.00
2019-05-31T03:23:30.233Z,13.10
2019-05-31T03:25:59.709Z,13.20
2019-05-31T03:28:29.185Z,13.20
2019-05-31T03:30:58.739Z,13.20
2019-05-31T03:33:36.400Z,13.10
2019-05-31T03:36:00.449Z,13.20
2019-05-31T03:38:31.146Z,13.20
2019-05-31T03:41:00.509Z,13.20
2019-05-31T03:43:30.393Z,13.20
2019-05-31T03:45:59.802Z,13.20
2019-05-31T03:48:29.233Z,13.20
2019-05-31T03:51:00.120Z,13.30
2019-05-31T03:53:29.950Z,13.30
2019-05-31T03:55:59.778Z,13.30
2019-05-31T03:58:29.247Z,13.40
2019-05-31T04:00:59.556Z,13.40
2019-05-31T04:03:29.675Z,13.40
2019-05-31T04:06:02.604Z,13.50
2019-05-31T04:08:32.965Z,13.60
2019-05-31T04:11:02.786Z,13.50
2019-05-31T04:13:33.467Z,13.50
2019-05-31T04:16:03.625Z,13.40
2019-05-31T04:18:34.855Z,13.40
2019-05-31T04:21:04.505Z,13.50
2019-05-31T04:23:34.109Z,13.50
2019-05-31T04:26:03.515Z,13.30
2019-05-31T04:28:34.371Z,13.40
2019-05-31T04:31:08.025Z,13.40
2019-05-31T04:33:37.977Z,13.30
2019-05-31T04:36:10.276Z,13.20
2019-05-31T04:38:39.734Z,13.10
2019-05-31T04:41:10.168Z,13.00
2019-05-31T04:43:39.565Z,13.00
2019-05-31T04:46:09.313Z,13.10
2019-05-31T04:48:38.797Z,13.10
2019-05-31T04:51:08.457Z,13.20
2019-05-31T04:53:38.115Z,13.10
2019-05-31T04:56:07.939Z,13.10
2019-05-31T04:58:38.068Z,13.10
2019-05-31T05:01:07.433Z,13.10
2019-05-31T05:03:36.925Z,13.10
2019-05-31T05:06:08.551Z,13.20
2019-05-31T05:08:38.972Z,13.20
2019-05-31T05:11:09.446Z,13.20
2019-05-31T05:13:38.786Z,13.30
2019-05-31T05:16:08.686Z,13.40
2019-05-31T05:18:40.938Z,13.50
2019-05-31T05:21:11.110Z,13.50
2019-05-31T05:23:40.481Z,13.50
2019-05-31T05:26:10.937Z,13.60
2019-05-31T05:28:41.651Z,13.60
2019-05-31T05:31:17.627Z,13.70
2019-05-31T05:33:47.370Z,13.60
2019-05-31T05:36:20.235Z,13.50
2019-05-31T05:38:52.450Z,13.70
2019-05-31T05:41:23.874Z,13.70
2019-05-31T05:43:53.544Z,13.70
2019-05-31T05:46:23.560Z,13.70
2019-05-31T05:48:55.981Z,13.60
2019-05-31T05:51:28.545Z,13.60
2019-05-31T05:53:58.249Z,13.70
2019-05-31T05:56:33.193Z,13.70
2019-05-31T05:59:01.514Z,13.70
2019-05-31T06:01:32.595Z,13.80
2019-05-31T06:04:04.407Z,13.70
2019-05-31T06:06:36.409Z,13.80
2019-05-31T06:09:09.066Z,13.80
2019-05-31T06:11:41.191Z,13.90
2019-05-31T06:14:11.783Z,14.00
2019-05-31T06:17:01.346Z,14.00
2019-05-31T06:19:20.033Z,14.00
2019-05-31T06:21:49.750Z,14.00
2019-05-31T06:24:21.058Z,14.00
2019-05-31T06:26:52.431Z,13.90
2019-05-31T06:29:22.579Z,13.80
2019-05-31T06:31:52.371Z,13.70
2019-05-31T06:34:22.956Z,13.60
2019-05-31T06:36:53.054Z,13.60
2019-05-31T06:39:23.053Z,13.60
2019-05-31T06:41:52.486Z,13.70
2019-05-31T06:44:22.775Z,13.70
2019-05-31T06:46:52.958Z,13.80
2019-05-31T06:49:22.376Z,13.90
2019-05-31T06:51:51.769Z,14.00
2019-05-31T06:54:22.507Z,14.00
2019-05-31T06:56:53.282Z,14.10
2019-05-31T06:59:26.035Z,14.20
2019-05-31T07:01:55.353Z,14.30
2019-05-31T07:04:24.795Z,14.40
2019-05-31T07:06:54.202Z,14.50
2019-05-31T07:09:27.179Z,14.50
2019-05-31T07:11:57.381Z,14.60
2019-05-31T07:14:27.770Z,14.70
2019-05-31T07:16:57.650Z,14.70
2019-05-31T07:19:28.179Z,14.80
2019-05-31T07:21:58.617Z,15.10
2019-05-31T07:24:28.533Z,15.40
2019-05-31T07:27:00.992Z,15.50
2019-05-31T07:29:34.328Z,15.60
2019-05-31T07:32:01.176Z,15.70
2019-05-31T07:34:31.631Z,15.80
2019-05-31T07:37:02.907Z,16.10
2019-05-31T07:39:32.942Z,16.20
2019-05-31T07:42:04.537Z,16.40
2019-05-31T07:44:37.612Z,16.50
2019-05-31T07:47:08.713Z,16.70
2019-05-31T07:49:40.151Z,16.80
2019-05-31T07:52:23.973Z,17.20
2019-05-31T07:54:43.745Z,17.00
2019-05-31T07:57:20.748Z,17.30
2019-05-31T07:59:50.674Z,17.30
2019-05-31T08:02:21.328Z,17.10
2019-05-31T08:04:51.157Z,17.30
2019-05-31T08:07:21.415Z,17.40
2019-05-31T08:09:50.897Z,17.70
2019-05-31T08:12:20.748Z,18.20
2019-05-31T08:14:51.339Z,18.50
2019-05-31T08:17:21.492Z,18.90
2019-05-31T08:19:50.865Z,19.40
2019-05-31T08:22:20.834Z,20.00
2019-05-31T08:24:50.397Z,20.60
2019-05-31T08:27:21.461Z,21.40
2019-05-31T08:29:51.223Z,21.50
2019-05-31T08:34:51.359Z,22.50
2019-05-31T08:37:23.778Z,23.40
2019-05-31T08:39:53.191Z,23.60
2019-05-31T08:42:26.377Z,24.30
2019-05-31T08:45:05.791Z,25.60
2019-05-31T08:47:29.128Z,26.90
2019-05-31T08:49:58.731Z,28.10
2019-05-31T08:52:35.054Z,28.40
2019-05-31T08:55:02.431Z,27.60
2019-05-31T08:57:33.794Z,27.50
2019-05-31T09:00:04.078Z,27.70
2019-05-31T09:02:33.928Z,26.10
2019-05-31T09:05:05.930Z,25.60
2019-05-31T09:07:36.531Z,24.80
2019-05-31T09:10:06.778Z,24.30
2019-05-31T09:12:44.706Z,24.00
2019-05-31T09:15:16.573Z,23.10
2019-05-31T09:17:46.219Z,22.40
2019-05-31T09:20:17.910Z,21.90
2019-05-31T09:22:47.305Z,21.40
2019-05-31T09:25:18.169Z,21.30
2019-05-31T09:27:55.848Z,21.40
2019-05-31T09:30:22.283Z,21.20
2019-05-31T09:32:50.766Z,21.10
2019-05-31T09:35:20.186Z,21.10
2019-05-31T09:37:49.745Z,20.70
2019-05-31T09:40:19.431Z,20.50
2019-05-31T09:42:54.253Z,20.40
2019-05-31T09:45:24.320Z,20.40
2019-05-31T09:47:52.336Z,20.50
2019-05-31T09:50:23.158Z,20.40
2019-05-31T09:52:53.194Z,20.60
2019-05-31T09:55:22.893Z,20.40
2019-05-31T09:57:53.519Z,20.40
2019-05-31T10:00:25.348Z,20.20
2019-05-31T10:02:55.607Z,20.20
2019-05-31T10:05:26.332Z,20.40
2019-05-31T10:08:09.333Z,20.70
2019-05-31T10:10:32.026Z,20.80
2019-05-31T10:13:06.939Z,21.00
2019-05-31T10:15:39.366Z,21.00
2019-05-31T10:18:15.458Z,21.30
2019-05-31T10:20:44.869Z,21.10
2019-05-31T10:23:15.202Z,21.10
2019-05-31T10:25:46.987Z,22.10
2019-05-31T10:28:18.575Z,22.90
2019-05-31T10:30:48.580Z,23.20
2019-05-31T10:33:18.134Z,23.80
2019-05-31T10:35:47.607Z,23.80
2019-05-31T10:38:18.164Z,23.80
2019-05-31T10:40:47.617Z,23.60
2019-05-31T10:43:18.790Z,23.80
2019-05-31T10:45:48.728Z,23.90
2019-05-31T10:48:18.988Z,23.20
2019-05-31T10:50:58.061Z,22.80
2019-05-31T10:53:20.889Z,22.20
2019-05-31T10:55:50.263Z,22.20
2019-05-31T10:58:20.216Z,22.20
2019-05-31T11:00:50.615Z,22.40
2019-05-31T11:03:20.272Z,22.00
2019-05-31T11:05:52.356Z,21.50
2019-05-31T11:08:21.903Z,21.50
2019-05-31T11:10:51.378Z,21.40
2019-05-31T11:13:20.841Z,21.50
2019-05-31T11:15:50.659Z,21.70
2019-05-31T11:18:21.792Z,22.00
2019-05-31T11:21:02.434Z,21.90
2019-05-31T11:23:22.412Z,22.10
2019-05-31T11:25:51.816Z,22.60
2019-05-31T11:28:21.810Z,23.00
2019-05-31T11:30:51.454Z,23.30
2019-05-31T11:33:38.539Z,23.20
2019-05-31T11:35:59.645Z,23.60
2019-05-31T11:38:25.767Z,23.50
2019-05-31T11:40:55.996Z,23.60
2019-05-31T11:43:26.098Z,23.40
2019-05-31T11:45:56.598Z,23.60
2019-05-31T11:48:26.017Z,23.70
2019-05-31T11:50:56.371Z,23.30
2019-05-31T11:53:31.529Z,23.20
2019-05-31T11:56:00.929Z,23.10
2019-05-31T11:58:37.384Z,23.10
2019-05-31T12:01:07.321Z,23.00
2019-05-31T12:03:37.619Z,22.60
2019-05-31T12:06:15.136Z,22.90
2019-05-31T12:08:42.295Z,22.70
2019-05-31T12:11:19.472Z,22.50
2019-05-31T12:13:51.450Z,22.70
2019-05-31T12:16:20.889Z,22.90
2019-05-31T12:18:51.479Z,23.00
2019-05-31T12:21:21.855Z,22.90
2019-05-31T12:23:51.204Z,22.80
2019-05-31T12:26:20.582Z,22.90
2019-05-31T12:28:51.025Z,23.20
2019-05-31T12:31:20.569Z,22.90
2019-05-31T12:33:52.391Z,23.00
2019-05-31T12:36:24.073Z,23.20
2019-05-31T12:38:53.603Z,23.10
2019-05-31T12:41:23.053Z,23.10
2019-05-31T12:43:53.016Z,23.30
2019-05-31T12:46:22.837Z,23.50
2019-05-31T12:48:54.169Z,23.80
2019-05-31T12:51:27.263Z,24.10
2019-05-31T12:53:55.547Z,24.50
2019-05-31T12:56:24.929Z,24.60
2019-05-31T12:58:58.917Z,24.20
2019-05-31T13:01:26.708Z,24.00
2019-05-31T13:03:59.623Z,24.10
2019-05-31T13:06:29.522Z,24.40
2019-05-31T13:08:58.917Z,24.60
2019-05-31T13:11:28.842Z,24.70
2019-05-31T13:14:00.277Z,24.40
2019-05-31T13:16:31.573Z,24.10
2019-05-31T13:19:00.902Z,24.10
2019-05-31T13:21:31.717Z,23.60
2019-05-31T13:24:01.103Z,23.70
2019-05-31T13:26:30.605Z,23.20
2019-05-31T13:29:00.337Z,23.00
2019-05-31T13:31:29.906Z,23.30
2019-05-31T13:33:59.685Z,23.70
2019-05-31T13:36:30.171Z,24.00
2019-05-31T13:39:00.260Z,24.30
2019-05-31T13:41:33.095Z,24.50
2019-05-31T13:44:02.825Z,24.70
2019-05-31T13:46:33.237Z,25.10
2019-05-31T13:49:02.944Z,24.60
2019-05-31T13:51:32.997Z,24.70
2019-05-31T13:54:06.687Z,24.80
2019-05-31T13:56:41.286Z,25.00
2019-05-31T13:59:13.655Z,25.00
2019-05-31T14:01:44.988Z,25.20
2019-05-31T14:04:17.042Z,25.40
2019-05-31T14:06:51.865Z,25.50
2019-05-31T14:09:22.297Z,25.50
2019-05-31T14:11:58.916Z,25.60
2019-05-31T14:14:30.004Z,25.60
2019-05-31T14:16:59.401Z,25.60
2019-05-31T14:19:42.314Z,25.70
2019-05-31T14:22:11.325Z,25.60
2019-05-31T14:24:40.665Z,25.70
2019-05-31T14:27:10.353Z,25.80
2019-05-31T14:29:41.316Z,25.80
2019-05-31T14:32:11.319Z,25.80
2019-05-31T14:34:41.642Z,25.80
2019-05-31T14:37:11.796Z,25.60
2019-05-31T14:39:41.512Z,25.60
2019-05-31T14:42:16.505Z,25.50
2019-05-31T14:44:48.031Z,25.20
2019-05-31T14:47:18.640Z,24.90
2019-05-31T14:49:47.993Z,24.80
2019-05-31T14:52:18.133Z,24.80
2019-05-31T14:55:03.365Z,24.80
2019-05-31T14:57:33.592Z,24.90
2019-05-31T15:00:03.891Z,24.90
2019-05-31T15:02:34.100Z,24.90
2019-05-31T15:05:05.721Z,24.60
2019-05-31T15:07:38.858Z,24.70
2019-05-31T15:10:08.730Z,24.80
2019-05-31T15:12:40.028Z,24.80
2019-05-31T15:15:10.132Z,24.60
2019-05-31T15:17:39.565Z,24.40
2019-05-31T15:20:10.406Z,24.10
2019-05-31T15:22:40.641Z,24.10
2019-05-31T15:25:10.676Z,24.10
2019-05-31T15:27:41.494Z,24.20
2019-05-31T15:30:28.403Z,24.10
2019-05-31T15:33:13.128Z,23.90
2019-05-31T15:36:15.775Z,24.00
2019-05-31T15:38:51.239Z,24.10
2019-05-31T15:41:21.596Z,24.30
2019-05-31T15:43:52.229Z,24.50
2019-05-31T15:46:22.197Z,24.70
2019-05-31T15:48:51.663Z,25.00
2019-05-31T15:51:22.162Z,25.00
2019-05-31T15:53:52.757Z,24.90
2019-05-31T15:56:24.299Z,24.70
2019-05-31T15:58:59.724Z,24.60
2019-05-31T16:01:33.674Z,24.30
2019-05-31T16:04:04.422Z,24.30
2019-05-31T16:06:39.268Z,24.30
2019-05-31T16:09:08.361Z,24.20
2019-05-31T16:11:38.077Z,24.30
2019-05-31T16:14:10.159Z,24.20
2019-05-31T16:16:40.288Z,24.10
2019-05-31T16:19:09.671Z,24.10
2019-05-31T16:21:39.804Z,24.00
2019-05-31T16:24:17.808Z,23.80
2019-05-31T16:26:40.602Z,23.80
2019-05-31T16:29:13.406Z,23.50
2019-05-31T16:31:44.281Z,23.40
2019-05-31T16:34:13.975Z,23.40
2019-05-31T16:36:44.276Z,23.30
2019-05-31T16:39:14.013Z,23.30
2019-05-31T16:41:48.831Z,23.40
2019-05-31T16:44:26.465Z,23.40
2019-05-31T16:46:55.948Z,23.50
2019-05-31T16:49:26.028Z,23.50
2019-05-31T16:51:55.625Z,23.40
2019-05-31T16:54:27.694Z,23.30
2019-05-31T16:56:57.144Z,23.20
2019-05-31T16:59:26.598Z,23.00
2019-05-31T17:01:55.984Z,23.00
2019-05-31T17:04:29.096Z,23.00
2019-05-31T17:06:57.860Z,23.00
2019-05-31T17:09:28.129Z,23.00
2019-05-31T17:11:57.593Z,22.90
2019-05-31T17:14:27.057Z,22.30
2019-05-31T17:16:57.371Z,22.20
2019-05-31T17:19:27.405Z,22.40
2019-05-31T17:21:56.841Z,22.40
2019-05-31T17:24:40.393Z,22.40
2019-05-31T17:26:57.849Z,22.40
2019-05-31T17:29:27.642Z,22.50
2019-05-31T17:31:58.525Z,22.50
2019-05-31T17:34:41.838Z,22.60
2019-05-31T17:37:03.260Z,22.60
2019-05-31T17:39:33.528Z,22.60
2019-05-31T17:42:03.435Z,22.50
2019-05-31T17:44:33.660Z,22.50
2019-05-31T17:47:05.740Z,22.40
2019-05-31T17:49:36.497Z,22.30
2019-05-31T17:52:06.991Z,22.10
2019-05-31T17:54:37.590Z,22.00
2019-05-31T17:57:07.424Z,21.90
2019-05-31T17:59:37.342Z,21.80
2019-05-31T18:02:07.192Z,21.70
2019-05-31T18:04:38.073Z,21.60
2019-05-31T18:07:10.438Z,21.50
2019-05-31T18:09:40.839Z,21.40
2019-05-31T18:12:12.829Z,21.30
2019-05-31T18:14:42.600Z,21.20
2019-05-31T18:17:14.625Z,21.20
2019-05-31T18:19:45.998Z,21.10
2019-05-31T18:22:33.638Z,21.00
2019-05-31T18:24:48.344Z,20.90
2019-05-31T18:27:19.716Z,20.80
2019-05-31T18:29:49.663Z,20.80
2019-05-31T18:32:22.067Z,20.80
2019-05-31T18:34:52.513Z,20.60
2019-05-31T18:37:24.228Z,20.50
2019-05-31T18:39:54.365Z,20.40
2019-05-31T18:42:29.809Z,20.30
2019-05-31T18:45:00.470Z,20.20
2019-05-31T18:47:31.906Z,20.10
2019-05-31T18:50:02.070Z,20.00
2019-05-31T18:52:35.610Z,19.90
2019-05-31T18:55:05.352Z,19.80
2019-05-31T18:57:34.832Z,19.60
2019-05-31T19:00:06.828Z,19.50
2019-05-31T19:02:36.228Z,19.40
2019-05-31T19:05:11.122Z,19.30
2019-05-31T19:07:41.507Z,19.20
2019-05-31T19:10:13.497Z,19.10
2019-05-31T19:12:42.870Z,19.00
2019-05-31T19:15:15.252Z,18.90
2019-05-31T19:17:44.759Z,18.80
2019-05-31T19:20:17.427Z,18.60
2019-05-31T19:22:47.186Z,18.50
2019-05-31T19:25:19.618Z,18.50
2019-05-31T19:27:49.426Z,18.40
2019-05-31T19:30:27.853Z,18.40
2019-05-31T19:32:57.369Z,18.40
2019-05-31T19:35:27.048Z,18.30
2019-05-31T19:37:58.380Z,18.30
2019-05-31T19:40:27.984Z,18.40
2019-05-31T19:42:57.399Z,18.40
2019-05-31T19:45:31.131Z,18.30
2019-05-31T19:48:02.304Z,18.20
2019-05-31T19:50:33.302Z,18.20
2019-05-31T19:53:02.834Z,18.20
2019-05-31T19:55:33.244Z,18.00
2019-05-31T19:58:03.533Z,18.00
2019-05-31T20:00:33.634Z,17.90
2019-05-31T20:03:03.191Z,17.90
2019-05-31T20:05:32.592Z,17.90
2019-05-31T20:08:02.391Z,17.90
2019-05-31T20:10:31.799Z,17.80
2019-05-31T20:13:02.394Z,17.80
2019-05-31T20:15:33.384Z,17.80
2019-05-31T20:18:02.813Z,17.70
2019-05-31T20:20:32.212Z,17.70
2019-05-31T20:23:02.254Z,17.50
2019-05-31T20:25:34.863Z,17.50
2019-05-31T20:28:04.027Z,17.40
2019-05-31T20:33:06.787Z,17.20
2019-05-31T20:35:13.215Z,17.30
2019-05-31T20:35:43.495Z,17.20
2019-05-31T20:38:13.445Z,17.20
2019-05-31T20:40:43.756Z,17.00
2019-05-31T20:43:13.871Z,17.00
2019-05-31T20:45:44.057Z,17.00
2019-05-31T20:48:25.109Z,17.00
2019-05-31T20:50:55.946Z,17.00
2019-05-31T20:53:27.693Z,16.90
2019-05-31T20:55:57.218Z,16.90
2019-05-31T20:58:40.265Z,16.90
2019-05-31T21:00:58.127Z,16.80
2019-05-31T21:03:30.477Z,16.80
2019-05-31T21:06:00.894Z,16.80
2019-05-31T21:08:31.977Z,16.80
2019-05-31T21:11:01.625Z,16.70
2019-05-31T21:13:32.249Z,16.70
2019-05-31T21:16:02.963Z,16.60
2019-05-31T21:18:34.873Z,16.60
2019-05-31T21:21:05.228Z,16.60
2019-05-31T21:23:37.339Z,16.50
2019-05-31T21:26:07.101Z,16.50
2019-05-31T21:28:52.173Z,16.40
2019-05-31T21:31:09.902Z,16.40
2019-05-31T21:33:39.781Z,16.30
2019-05-31T21:36:15.010Z,16.30
2019-05-31T21:38:47.497Z,16.30
2019-05-31T21:41:22.017Z,16.20
2019-05-31T21:43:51.447Z,16.20
2019-05-31T21:46:24.665Z,16.10
2019-05-31T21:48:54.444Z,16.10
2019-05-31T21:51:24.725Z,16.00
2019-05-31T21:53:55.470Z,15.90
2019-05-31T21:56:26.178Z,15.90
2019-05-31T21:59:07.565Z,15.90
2019-05-31T22:01:30.227Z,15.80
2019-05-31T22:03:59.797Z,15.80
2019-05-31T22:06:30.353Z,15.80
2019-05-31T22:09:00.701Z,15.70
2019-05-31T22:11:31.144Z,15.70
2019-05-31T22:14:00.992Z,15.60
2019-05-31T22:16:31.432Z,15.60
2019-05-31T22:19:00.860Z,15.60
2019-05-31T22:21:32.317Z,15.60
2019-05-31T22:24:03.915Z,15.60
2019-05-31T22:26:33.304Z,15.60
2019-05-31T22:29:02.824Z,15.50
2019-05-31T22:31:41.112Z,15.50
2019-05-31T22:34:10.512Z,15.50
2019-05-31T22:36:40.167Z,15.40
2019-05-31T22:39:10.537Z,15.40
2019-05-31T22:41:42.173Z,15.30
2019-05-31T22:44:11.637Z,15.30
2019-05-31T22:46:43.709Z,15.30
2019-05-31T22:49:13.442Z,15.20
2019-05-31T22:51:42.890Z,15.20
2019-05-31T22:54:12.432Z,15.10
2019-05-31T22:56:42.552Z,15.10
2019-05-31T22:59:11.947Z,15.10
2019-05-31T23:01:42.717Z,15.10
2019-05-31T23:04:13.816Z,15.00
2019-05-31T23:06:43.778Z,15.00
2019-05-31T23:09:13.591Z,14.90
2019-05-31T23:11:42.990Z,14.90
2019-05-31T23:14:13.777Z,14.90
2019-05-31T23:16:44.226Z,14.90
2019-05-31T23:19:15.446Z,14.90
2019-05-31T23:21:45.305Z,14.80
2019-05-31T23:24:16.762Z,14.70
2019-05-31T23:26:46.167Z,14.70
2019-05-31T23:29:17.203Z,14.70
2019-05-31T23:31:47.515Z,14.70
2019-05-31T23:34:17.157Z,14.70
2019-05-31T23:36:46.925Z,14.70
2019-05-31T23:39:17.908Z,14.70
2019-05-31T23:41:47.861Z,14.60
2019-05-31T23:44:19.694Z,14.60
2019-05-31T23:46:49.139Z,14.50
2019-05-31T23:49:18.539Z,14.40
2019-05-31T23:51:47.974Z,14.40
2019-05-31T23:54:20.129Z,14.20
2019-05-31T23:56:49.529Z,14.20
2019-05-31T23:59:19.512Z,14.20
